sensor_id;sensor_type;location;lat;lon;timestamp;P1;durP1;ratioP1;P2;durP2;ratioP2
8268;SDS011;4174;48.304;16.364;2023-03-14T00:00:12;9.27;;;3.07;;
8268;SDS011;4174;48.304;16.364;2023-03-14T00:06:16;9.70;;;3.30;;
8268;SDS011;4174;48.304;16.364;2023-03-14T00:12:18;9.30;;;3.40;;
8268;SDS011;4174;48.304;16.364;2023-03-14T00:18:21;8.83;;;3.20;;
8268;SDS011;4174;48.304;16.364;2023-03-14T00:24:25;8.80;;;3.30;;
8268;SDS011;4174;48.304;16.364;2023-03-14T00:30:29;10.00;;;3.05;;
8268;SDS011;4174;48.304;16.364;2023-03-14T00:36:32;9.93;;;3.10;;
8268;SDS011;4174;48.304;16.364;2023-03-14T00:42:36;8.93;;;3.00;;
8268;SDS011;4174;48.304;16.364;2023-03-14T00:48:40;8.13;;;2.95;;
8268;SDS011;4174;48.304;16.364;2023-03-14T00:54:45;7.07;;;2.78;;
8268;SDS011;4174;48.304;16.364;2023-03-14T01:00:49;8.97;;;3.00;;
8268;SDS011;4174;48.304;16.364;2023-03-14T01:06:53;7.57;;;2.70;;
8268;SDS011;4174;48.304;16.364;2023-03-14T01:12:57;7.40;;;2.60;;
8268;SDS011;4174;48.304;16.364;2023-03-14T01:19:00;8.00;;;2.60;;
8268;SDS011;4174;48.304;16.364;2023-03-14T01:25:07;7.03;;;2.57;;
8268;SDS011;4174;48.304;16.364;2023-03-14T01:31:11;7.60;;;2.50;;
8268;SDS011;4174;48.304;16.364;2023-03-14T01:37:13;7.20;;;2.43;;
8268;SDS011;4174;48.304;16.364;2023-03-14T01:43:18;8.27;;;2.60;;
8268;SDS011;4174;48.304;16.364;2023-03-14T01:49:24;7.62;;;2.28;;
8268;SDS011;4174;48.304;16.364;2023-03-14T01:55:30;7.00;;;2.50;;
8268;SDS011;4174;48.304;16.364;2023-03-14T02:01:33;6.37;;;2.30;;
8268;SDS011;4174;48.304;16.364;2023-03-14T02:07:41;6.77;;;2.20;;
8268;SDS011;4174;48.304;16.364;2023-03-14T02:13:42;7.30;;;2.37;;
8268;SDS011;4174;48.304;16.364;2023-03-14T02:19:49;7.43;;;2.20;;
8268;SDS011;4174;48.304;16.364;2023-03-14T02:26:06;7.60;;;2.30;;
8268;SDS011;4174;48.304;16.364;2023-03-14T02:32:09;7.27;;;2.60;;
8268;SDS011;4174;48.304;16.364;2023-03-14T02:38:47;8.87;;;2.90;;
8268;SDS011;4174;48.304;16.364;2023-03-14T02:44:33;8.83;;;2.80;;
8268;SDS011;4174;48.304;16.364;2023-03-14T02:50:36;8.17;;;2.70;;
8268;SDS011;4174;48.304;16.364;2023-03-14T02:56:39;6.77;;;2.67;;
8268;SDS011;4174;48.304;16.364;2023-03-14T03:02:44;7.10;;;2.70;;
8268;SDS011;4174;48.304;16.364;2023-03-14T03:08:47;7.65;;;2.90;;
8268;SDS011;4174;48.304;16.364;2023-03-14T03:14:50;8.27;;;3.10;;
8268;SDS011;4174;48.304;16.364;2023-03-14T03:20:54;9.27;;;3.00;;
8268;SDS011;4174;48.304;16.364;2023-03-14T03:26:57;7.37;;;2.93;;
8268;SDS011;4174;48.304;16.364;2023-03-14T03:33:01;9.73;;;3.70;;
8268;SDS011;4174;48.304;16.364;2023-03-14T03:39:05;9.90;;;4.00;;
8268;SDS011;4174;48.304;16.364;2023-03-14T03:45:09;11.27;;;4.40;;
8268;SDS011;4174;48.304;16.364;2023-03-14T03:51:14;10.97;;;4.20;;
8268;SDS011;4174;48.304;16.364;2023-03-14T03:57:16;10.10;;;4.40;;
8268;SDS011;4174;48.304;16.364;2023-03-14T04:03:20;9.43;;;4.03;;
8268;SDS011;4174;48.304;16.364;2023-03-14T04:09:24;10.05;;;4.03;;
8268;SDS011;4174;48.304;16.364;2023-03-14T04:15:27;10.87;;;4.17;;
8268;SDS011;4174;48.304;16.364;2023-03-14T04:21:31;10.47;;;4.30;;
8268;SDS011;4174;48.304;16.364;2023-03-14T04:27:34;12.03;;;4.33;;
8268;SDS011;4174;48.304;16.364;2023-03-14T04:33:39;11.20;;;4.37;;
8268;SDS011;4174;48.304;16.364;2023-03-14T04:39:43;10.93;;;4.40;;
8268;SDS011;4174;48.304;16.364;2023-03-14T04:45:48;13.80;;;4.68;;
8268;SDS011;4174;48.304;16.364;2023-03-14T04:51:51;10.20;;;4.28;;
8268;SDS011;4174;48.304;16.364;2023-03-14T04:57:56;10.60;;;4.40;;
8268;SDS011;4174;48.304;16.364;2023-03-14T05:03:59;11.48;;;4.60;;
8268;SDS011;4174;48.304;16.364;2023-03-14T05:10:03;11.17;;;4.30;;
8268;SDS011;4174;48.304;16.364;2023-03-14T05:16:09;10.77;;;4.50;;
8268;SDS011;4174;48.304;16.364;2023-03-14T05:22:12;11.33;;;4.37;;
8268;SDS011;4174;48.304;16.364;2023-03-14T05:28:16;9.13;;;3.80;;
8268;SDS011;4174;48.304;16.364;2023-03-14T05:34:19;9.33;;;3.97;;
8268;SDS011;4174;48.304;16.364;2023-03-14T05:40:24;9.90;;;3.80;;
8268;SDS011;4174;48.304;16.364;2023-03-14T05:46:28;10.48;;;4.35;;
8268;SDS011;4174;48.304;16.364;2023-03-14T05:52:32;12.20;;;4.90;;
8268;SDS011;4174;48.304;16.364;2023-03-14T05:58:35;9.77;;;3.90;;
8268;SDS011;4174;48.304;16.364;2023-03-14T06:04:39;8.57;;;3.80;;
8268;SDS011;4174;48.304;16.364;2023-03-14T06:10:43;10.25;;;4.18;;
8268;SDS011;4174;48.304;16.364;2023-03-14T06:16:47;13.73;;;4.37;;
8268;SDS011;4174;48.304;16.364;2023-03-14T06:22:50;11.20;;;4.60;;
8268;SDS011;4174;48.304;16.364;2023-03-14T06:28:54;15.00;;;6.68;;
8268;SDS011;4174;48.304;16.364;2023-03-14T06:34:58;9.53;;;3.90;;
8268;SDS011;4174;48.304;16.364;2023-03-14T06:41:03;9.80;;;4.22;;
8268;SDS011;4174;48.304;16.364;2023-03-14T06:47:05;11.03;;;4.03;;
8268;SDS011;4174;48.304;16.364;2023-03-14T06:53:09;10.48;;;4.30;;
8268;SDS011;4174;48.304;16.364;2023-03-14T06:59:12;10.53;;;4.63;;
8268;SDS011;4174;48.304;16.364;2023-03-14T07:05:16;7.77;;;3.63;;
8268;SDS011;4174;48.304;16.364;2023-03-14T07:11:20;13.30;;;4.40;;
8268;SDS011;4174;48.304;16.364;2023-03-14T07:17:22;11.13;;;3.80;;
8268;SDS011;4174;48.304;16.364;2023-03-14T07:23:26;8.77;;;3.10;;
8268;SDS011;4174;48.304;16.364;2023-03-14T07:29:30;10.63;;;4.20;;
8268;SDS011;4174;48.304;16.364;2023-03-14T07:35:34;10.45;;;4.20;;
8268;SDS011;4174;48.304;16.364;2023-03-14T07:41:38;9.83;;;4.10;;
8268;SDS011;4174;48.304;16.364;2023-03-14T07:47:42;9.88;;;3.78;;
8268;SDS011;4174;48.304;16.364;2023-03-14T07:53:46;9.45;;;3.42;;
8268;SDS011;4174;48.304;16.364;2023-03-14T07:59:50;9.33;;;3.97;;
8268;SDS011;4174;48.304;16.364;2023-03-14T08:05:54;6.93;;;2.57;;
8268;SDS011;4174;48.304;16.364;2023-03-14T08:11:58;4.77;;;1.57;;
8268;SDS011;4174;48.304;16.364;2023-03-14T08:18:01;3.40;;;0.70;;
8268;SDS011;4174;48.304;16.364;2023-03-14T08:24:05;3.63;;;0.80;;
8268;SDS011;4174;48.304;16.364;2023-03-14T08:30:11;2.70;;;0.60;;
8268;SDS011;4174;48.304;16.364;2023-03-14T08:36:14;3.30;;;0.80;;
8268;SDS011;4174;48.304;16.364;2023-03-14T08:42:17;4.97;;;1.30;;
8268;SDS011;4174;48.304;16.364;2023-03-14T08:48:21;4.40;;;1.03;;
8268;SDS011;4174;48.304;16.364;2023-03-14T08:54:25;6.10;;;1.20;;
8268;SDS011;4174;48.304;16.364;2023-03-14T09:00:29;4.70;;;1.10;;
8268;SDS011;4174;48.304;16.364;2023-03-14T09:06:32;5.10;;;1.53;;
8268;SDS011;4174;48.304;16.364;2023-03-14T09:12:36;5.07;;;1.17;;
8268;SDS011;4174;48.304;16.364;2023-03-14T09:18:40;5.80;;;1.12;;
8268;SDS011;4174;48.304;16.364;2023-03-14T09:24:43;3.60;;;0.73;;
8268;SDS011;4174;48.304;16.364;2023-03-14T09:30:47;3.17;;;0.70;;
8268;SDS011;4174;48.304;16.364;2023-03-14T09:36:51;4.23;;;1.10;;
8268;SDS011;4174;48.304;16.364;2023-03-14T09:42:55;4.23;;;0.90;;
8268;SDS011;4174;48.304;16.364;2023-03-14T09:48:58;3.97;;;0.50;;
8268;SDS011;4174;48.304;16.364;2023-03-14T09:55:03;2.80;;;0.60;;
8268;SDS011;4174;48.304;16.364;2023-03-14T10:01:08;5.28;;;0.80;;
8268;SDS011;4174;48.304;16.364;2023-03-14T10:07:12;5.73;;;1.43;;
8268;SDS011;4174;48.304;16.364;2023-03-14T10:13:17;5.85;;;1.70;;
8268;SDS011;4174;48.304;16.364;2023-03-14T10:19:22;9.45;;;3.30;;
8268;SDS011;4174;48.304;16.364;2023-03-14T10:25:28;13.80;;;4.63;;
8268;SDS011;4174;48.304;16.364;2023-03-14T10:31:45;12.17;;;3.50;;
8268;SDS011;4174;48.304;16.364;2023-03-14T10:37:34;8.63;;;2.60;;
8268;SDS011;4174;48.304;16.364;2023-03-14T10:43:37;5.03;;;0.90;;
8268;SDS011;4174;48.304;16.364;2023-03-14T10:49:40;3.20;;;0.60;;
8268;SDS011;4174;48.304;16.364;2023-03-14T10:55:45;3.23;;;0.50;;
8268;SDS011;4174;48.304;16.364;2023-03-14T11:02:58;2.30;;;0.50;;
8268;SDS011;4174;48.304;16.364;2023-03-14T11:08:31;3.00;;;0.80;;
8268;SDS011;4174;48.304;16.364;2023-03-14T11:14:49;2.22;;;0.50;;
8268;SDS011;4174;48.304;16.364;2023-03-14T11:20:55;2.63;;;0.50;;
8268;SDS011;4174;48.304;16.364;2023-03-14T11:27:21;2.63;;;0.50;;
8268;SDS011;4174;48.304;16.364;2023-03-14T11:33:28;3.17;;;0.60;;
8268;SDS011;4174;48.304;16.364;2023-03-14T11:39:38;2.53;;;0.50;;
8268;SDS011;4174;48.304;16.364;2023-03-14T11:45:42;3.03;;;0.50;;
8268;SDS011;4174;48.304;16.364;2023-03-14T11:51:46;2.43;;;0.50;;
8268;SDS011;4174;48.304;16.364;2023-03-14T11:57:47;2.77;;;0.60;;
8268;SDS011;4174;48.304;16.364;2023-03-14T12:10:02;3.42;;;0.60;;
8268;SDS011;4174;48.304;16.364;2023-03-14T12:16:09;2.67;;;0.57;;
8268;SDS011;4174;48.304;16.364;2023-03-14T12:22:28;3.30;;;0.70;;
8268;SDS011;4174;48.304;16.364;2023-03-14T12:28:32;3.37;;;0.70;;
8268;SDS011;4174;48.304;16.364;2023-03-14T12:34:40;3.30;;;0.60;;
8268;SDS011;4174;48.304;16.364;2023-03-14T12:40:57;2.95;;;0.62;;
8268;SDS011;4174;48.304;16.364;2023-03-14T12:54:00;2.67;;;0.50;;
8268;SDS011;4174;48.304;16.364;2023-03-14T13:00:20;2.95;;;0.52;;
8268;SDS011;4174;48.304;16.364;2023-03-14T13:12:50;2.67;;;0.50;;
8268;SDS011;4174;48.304;16.364;2023-03-14T13:19:09;2.42;;;0.50;;
8268;SDS011;4174;48.304;16.364;2023-03-14T13:25:18;2.83;;;0.50;;
8268;SDS011;4174;48.304;16.364;2023-03-14T13:31:23;3.03;;;0.50;;
8268;SDS011;4174;48.304;16.364;2023-03-14T13:37:25;2.03;;;0.50;;
8268;SDS011;4174;48.304;16.364;2023-03-14T13:43:28;3.23;;;0.60;;
8268;SDS011;4174;48.304;16.364;2023-03-14T13:49:33;3.80;;;0.60;;
8268;SDS011;4174;48.304;16.364;2023-03-14T13:55:38;3.03;;;0.40;;
8268;SDS011;4174;48.304;16.364;2023-03-14T14:01:44;2.53;;;0.50;;
8268;SDS011;4174;48.304;16.364;2023-03-14T14:07:48;2.80;;;0.50;;
8268;SDS011;4174;48.304;16.364;2023-03-14T14:13:51;3.40;;;0.60;;
8268;SDS011;4174;48.304;16.364;2023-03-14T14:19:54;3.07;;;0.60;;
8268;SDS011;4174;48.304;16.364;2023-03-14T14:25:57;3.35;;;0.70;;
8268;SDS011;4174;48.304;16.364;2023-03-14T14:32:15;3.67;;;0.70;;
8268;SDS011;4174;48.304;16.364;2023-03-14T14:38:19;2.80;;;0.60;;
8268;SDS011;4174;48.304;16.364;2023-03-14T14:44:28;2.73;;;0.60;;
8268;SDS011;4174;48.304;16.364;2023-03-14T14:50:32;3.30;;;0.60;;
8268;SDS011;4174;48.304;16.364;2023-03-14T14:56:40;2.83;;;0.60;;
8268;SDS011;4174;48.304;16.364;2023-03-14T15:02:45;3.33;;;0.73;;
8268;SDS011;4174;48.304;16.364;2023-03-14T15:08:49;3.27;;;0.70;;
8268;SDS011;4174;48.304;16.364;2023-03-14T15:14:53;3.57;;;0.60;;
8268;SDS011;4174;48.304;16.364;2023-03-14T15:20:57;3.63;;;0.80;;
8268;SDS011;4174;48.304;16.364;2023-03-14T15:27:02;3.00;;;0.50;;
8268;SDS011;4174;48.304;16.364;2023-03-14T15:33:06;2.53;;;0.50;;
8268;SDS011;4174;48.304;16.364;2023-03-14T15:39:09;4.17;;;0.70;;
8268;SDS011;4174;48.304;16.364;2023-03-14T15:45:12;6.53;;;1.10;;
8268;SDS011;4174;48.304;16.364;2023-03-14T15:51:16;7.12;;;2.67;;
8268;SDS011;4174;48.304;16.364;2023-03-14T15:57:19;5.57;;;1.90;;
8268;SDS011;4174;48.304;16.364;2023-03-14T16:03:24;5.20;;;0.90;;
8268;SDS011;4174;48.304;16.364;2023-03-14T16:09:28;7.18;;;2.70;;
8268;SDS011;4174;48.304;16.364;2023-03-14T16:15:31;5.00;;;0.90;;
8268;SDS011;4174;48.304;16.364;2023-03-14T16:21:35;5.33;;;1.20;;
8268;SDS011;4174;48.304;16.364;2023-03-14T16:27:39;5.37;;;1.80;;
8268;SDS011;4174;48.304;16.364;2023-03-14T16:33:43;8.93;;;2.00;;
8268;SDS011;4174;48.304;16.364;2023-03-14T16:39:46;7.00;;;2.40;;
8268;SDS011;4174;48.304;16.364;2023-03-14T16:45:51;7.57;;;2.67;;
8268;SDS011;4174;48.304;16.364;2023-03-14T16:51:54;6.60;;;2.65;;
8268;SDS011;4174;48.304;16.364;2023-03-14T16:57:58;13.95;;;5.28;;
8268;SDS011;4174;48.304;16.364;2023-03-14T17:04:02;11.33;;;4.50;;
8268;SDS011;4174;48.304;16.364;2023-03-14T17:10:05;7.90;;;2.70;;
8268;SDS011;4174;48.304;16.364;2023-03-14T17:16:11;7.47;;;2.58;;
8268;SDS011;4174;48.304;16.364;2023-03-14T17:22:13;7.85;;;3.10;;
8268;SDS011;4174;48.304;16.364;2023-03-14T17:28:17;8.57;;;2.90;;
8268;SDS011;4174;48.304;16.364;2023-03-14T17:34:19;10.10;;;4.60;;
8268;SDS011;4174;48.304;16.364;2023-03-14T17:40:23;12.80;;;4.67;;
8268;SDS011;4174;48.304;16.364;2023-03-14T17:46:26;11.30;;;4.57;;
8268;SDS011;4174;48.304;16.364;2023-03-14T17:52:31;9.87;;;3.57;;
8268;SDS011;4174;48.304;16.364;2023-03-14T17:58:33;9.55;;;3.50;;
8268;SDS011;4174;48.304;16.364;2023-03-14T18:04:36;10.47;;;4.30;;
8268;SDS011;4174;48.304;16.364;2023-03-14T18:10:40;10.20;;;4.30;;
8268;SDS011;4174;48.304;16.364;2023-03-14T18:16:43;11.67;;;5.07;;
8268;SDS011;4174;48.304;16.364;2023-03-14T18:22:46;12.57;;;5.90;;
8268;SDS011;4174;48.304;16.364;2023-03-14T18:28:50;15.60;;;7.03;;
8268;SDS011;4174;48.304;16.364;2023-03-14T18:34:53;9.35;;;4.15;;
8268;SDS011;4174;48.304;16.364;2023-03-14T18:41:02;11.33;;;4.80;;
8268;SDS011;4174;48.304;16.364;2023-03-14T18:47:07;10.83;;;4.77;;
8268;SDS011;4174;48.304;16.364;2023-03-14T18:53:10;9.73;;;4.00;;
8268;SDS011;4174;48.304;16.364;2023-03-14T18:59:14;3.37;;;0.73;;
8268;SDS011;4174;48.304;16.364;2023-03-14T19:05:18;3.13;;;0.60;;
8268;SDS011;4174;48.304;16.364;2023-03-14T19:11:21;2.87;;;0.60;;
8268;SDS011;4174;48.304;16.364;2023-03-14T19:17:25;2.97;;;0.63;;
8268;SDS011;4174;48.304;16.364;2023-03-14T19:23:29;2.87;;;0.70;;
8268;SDS011;4174;48.304;16.364;2023-03-14T19:29:31;3.13;;;0.80;;
8268;SDS011;4174;48.304;16.364;2023-03-14T19:35:36;4.00;;;0.80;;
8268;SDS011;4174;48.304;16.364;2023-03-14T19:41:40;3.70;;;0.70;;
8268;SDS011;4174;48.304;16.364;2023-03-14T19:47:44;4.50;;;0.90;;
8268;SDS011;4174;48.304;16.364;2023-03-14T19:53:49;5.77;;;1.20;;
8268;SDS011;4174;48.304;16.364;2023-03-14T19:59:51;3.30;;;0.80;;
8268;SDS011;4174;48.304;16.364;2023-03-14T20:05:55;4.00;;;0.87;;
8268;SDS011;4174;48.304;16.364;2023-03-14T20:12:02;4.53;;;0.83;;
8268;SDS011;4174;48.304;16.364;2023-03-14T20:18:05;3.97;;;0.70;;
8268;SDS011;4174;48.304;16.364;2023-03-14T20:24:08;4.60;;;0.90;;
8268;SDS011;4174;48.304;16.364;2023-03-14T20:30:13;4.10;;;1.00;;
8268;SDS011;4174;48.304;16.364;2023-03-14T20:36:18;3.90;;;1.05;;
8268;SDS011;4174;48.304;16.364;2023-03-14T20:42:22;4.10;;;1.20;;
8268;SDS011;4174;48.304;16.364;2023-03-14T20:48:26;3.83;;;0.90;;
8268;SDS011;4174;48.304;16.364;2023-03-14T20:54:28;3.73;;;0.97;;
8268;SDS011;4174;48.304;16.364;2023-03-14T21:00:31;3.90;;;0.90;;
8268;SDS011;4174;48.304;16.364;2023-03-14T21:06:35;5.63;;;1.00;;
8268;SDS011;4174;48.304;16.364;2023-03-14T21:12:39;4.07;;;0.90;;
8268;SDS011;4174;48.304;16.364;2023-03-14T21:18:43;4.30;;;1.10;;
8268;SDS011;4174;48.304;16.364;2023-03-14T21:24:47;4.63;;;1.20;;
8268;SDS011;4174;48.304;16.364;2023-03-14T21:30:50;4.87;;;0.90;;
8268;SDS011;4174;48.304;16.364;2023-03-14T21:36:55;4.53;;;0.80;;
8268;SDS011;4174;48.304;16.364;2023-03-14T21:42:58;4.05;;;0.90;;
8268;SDS011;4174;48.304;16.364;2023-03-14T21:49:03;5.40;;;1.00;;
8268;SDS011;4174;48.304;16.364;2023-03-14T21:55:07;4.03;;;0.90;;
8268;SDS011;4174;48.304;16.364;2023-03-14T22:01:12;3.07;;;0.70;;
8268;SDS011;4174;48.304;16.364;2023-03-14T22:07:16;4.10;;;0.80;;
8268;SDS011;4174;48.304;16.364;2023-03-14T22:13:21;3.40;;;0.70;;
8268;SDS011;4174;48.304;16.364;2023-03-14T22:19:22;3.03;;;0.60;;
8268;SDS011;4174;48.304;16.364;2023-03-14T22:25:25;3.43;;;0.70;;
8268;SDS011;4174;48.304;16.364;2023-03-14T22:31:30;3.20;;;0.67;;
8268;SDS011;4174;48.304;16.364;2023-03-14T22:37:33;3.27;;;0.70;;
8268;SDS011;4174;48.304;16.364;2023-03-14T22:43:37;3.17;;;0.63;;
8268;SDS011;4174;48.304;16.364;2023-03-14T22:49:40;3.83;;;0.70;;
8268;SDS011;4174;48.304;16.364;2023-03-14T22:55:44;3.67;;;0.70;;
8268;SDS011;4174;48.304;16.364;2023-03-14T23:01:48;3.37;;;0.60;;
8268;SDS011;4174;48.304;16.364;2023-03-14T23:07:52;4.10;;;0.70;;
8268;SDS011;4174;48.304;16.364;2023-03-14T23:13:55;3.87;;;0.73;;
8268;SDS011;4174;48.304;16.364;2023-03-14T23:19:58;3.63;;;0.70;;
8268;SDS011;4174;48.304;16.364;2023-03-14T23:26:03;4.53;;;0.63;;
8268;SDS011;4174;48.304;16.364;2023-03-14T23:32:06;3.60;;;0.60;;
8268;SDS011;4174;48.304;16.364;2023-03-14T23:38:11;3.47;;;0.63;;
8268;SDS011;4174;48.304;16.364;2023-03-14T23:44:15;3.65;;;0.80;;
8268;SDS011;4174;48.304;16.364;2023-03-14T23:50:18;4.80;;;0.80;;
8268;SDS011;4174;48.304;16.364;2023-03-14T23:56:22;4.63;;;0.80;;
